Impacts METAR Board INFO
IDs:

KATL - Atlanta/Hartsfield-J, GA, US

Updated at: 1513 UTC 19 Jan 2018
Potential Impact None Slight Moderate High
Time19/03Z 19/04Z 19/05Z 19/06Z 19/07Z 19/08Z 19/09Z 19/10Z 19/11Z 19/12Z 19/13Z 19/14Z 19/15Z
VIS10 10 10 10 10 10 10 10 10 10 10 10 10
CIG-- -- -- -- -- -- -- -- -- -- -- -- --
CoverCLRCLRCLRCLRCLRCLRCLRCLRCLRCLRCLRCLRFEW
FltCatVFRVFRVFRVFRVFRVFRVFRVFRVFRVFRVFRVFRVFR
WX--------------------------
WDir310290280300300280300310300300310320320
WSpd7 5 7 6 7 4 7 9 6 11 7 8 10
WGst-- -- -- -- -- -- -- -- -- -- -- -- --
Raw hourly METARs
KATL 190252Z 31007KT 10SM CLR M01/M11 A3032 RMK AO2 SLP279 T10111106 58005
KATL 190352Z 29005KT 10SM CLR M01/M11 A3032 RMK AO2 SLP280 T10111111
KATL 190452Z 28007KT 10SM CLR M02/M11 A3032 RMK AO2 SLP277 T10171106 400501094
KATL 190552Z 30006KT 10SM CLR M02/M11 A3030 RMK AO2 SLP270 4/001 T10221106 10017 21022 58007
KATL 190652Z 30007KT 10SM CLR M02/M10 A3029 RMK AO2 SLP268 T10221100
KATL 190752Z 28004KT 10SM CLR M03/M10 A3029 RMK AO2 SLP266 T10281100
KATL 190852Z 30007KT 10SM CLR M03/M10 A3029 RMK AO2 SLP265 T10281100 58003
KATL 190952Z 31009KT 10SM CLR M03/M10 A3029 RMK AO2 SLP265 T10281100
KATL 191052Z 30006KT 10SM CLR M03/M11 A3028 RMK AO2 SLP265 T10281106
KATL 191152Z 30011KT 10SM CLR M03/M11 A3029 RMK AO2 SLP267 4/001 T10331106 11017 21033 53000
KATL 191252Z 31007KT 10SM CLR M03/M11 A3029 RMK AO2 SLP269 T10331106
KATL 191352Z 32008KT 10SM CLR M01/M10 A3030 RMK AO2 SLP272 T10111100
KATL 191452Z 32010KT 10SM FEW250 02/M09 A3032 RMK AO2 SLP279 T00171094 53012